Fykan — LLDJ — position and weather

sailwx.info

Track history (hours):
 
Tides and Currents Weather Stations Pressure Air Temp Water Temp Dewpoint Dewpoint Depression Visibility Wind Speed Wind Dir Waves Ship Positions

Fykan

Last reported at 2014-Oct-31 17:18 UTC. Time now 2014-Oct-31 20:54 UTC.
Position N 66°34' E 012°50'.

Length 52 m; draft 3.3 m.

Type: Ship. MMSI: 259681000.

Date/timePositionNaut miles runAvg speedWind from/ knotsBaromVisibWave heightAir tempDewpointWater temp
2014-Oct-31 17:18N 66°34' E 012°50'4 0.8
2014-Oct-31 12:06N 66°36' E 012°41'4 7.8
2014-Oct-31 11:33N 66°34' E 012°50'4 0.8
2014-Oct-31 06:15N 66°36' E 012°59'4 5.9
2014-Oct-31 05:33N 66°34' E 012°50'4 0.4
2014-Oct-30 19:30N 66°36' E 012°42'7 7.0
2014-Oct-30 18:31N 66°35' E 012°59'1 0.2
2014-Oct-30 15:23N 66°36' E 012°59'5 6.1
2014-Oct-30 14:33N 66°34' E 012°47'3 0.8
2014-Oct-30 11:33N 66°34' E 012°54'3 0.7
2014-Oct-30 07:23N 66°36' E 012°59'4 5.1
2014-Oct-30 06:33N 66°34' E 012°50'1 0.2
2014-Oct-29 21:29N 66°34' E 012°54'3 0.5
2014-Oct-29 15:25N 66°36' E 012°59'5 5.9
2014-Oct-29 14:33N 66°34' E 012°48'0 0.0
2014-Oct-29 11:32N 66°34' E 012°48'5 5.1
2014-Oct-29 10:33N 66°36' E 012°59'0 0.0
2014-Oct-29 07:20N 66°36' E 012°59'4 5.2
2014-Oct-29 06:31N 66°34' E 012°50'0 0.0
2014-Oct-28 21:33N 66°34' E 012°50'2 0.6
2014-Oct-28 17:32N 66°33' E 012°56'2 0.4
2014-Oct-28 11:32N 66°34' E 012°50'8 2.0
2014-Oct-28 07:31N 66°34' E 013°11'5 3.9
2014-Oct-28 06:10N 66°36' E 012°59'5 6.5
2014-Oct-28 05:27N 66°34' E 012°49'4 0.3
2014-Oct-27 19:13N 66°36' E 012°42'7 8.8
2014-Oct-27 18:26N 66°37' E 012°59'1 0.3
2014-Oct-27 15:29N 66°36' E 012°59'5 5.4
2014-Oct-27 14:34N 66°34' E 012°48'0 0.2
2014-Oct-27 12:16N 66°34' E 012°48'4 4.4
2014-Oct-27 11:17N 66°35' E 012°59'1 0.3
2014-Oct-27 07:20N 66°36' E 012°59'4 5.4
2014-Oct-27 06:33N 66°34' E 012°50'4 0.5
2014-Oct-26 22:28N 66°36' E 012°43'6 7.1
2014-Oct-26 21:33N 66°34' E 012°58'5 2.6
2014-Oct-26 19:33N 66°35' E 013°11'1 0.8
2014-Oct-26 18:11N 66°34' E 013°10'5 2.5
2014-Oct-26 16:12N 66°36' E 012°59'4 6.1
2014-Oct-26 15:31N 66°34' E 012°50'0 0.0
2014-Oct-25 10:16N 66°34' E 012°50'4 1.0
2014-Oct-25 06:19N 66°36' E 012°59'4 5.4
2014-Oct-25 05:33N 66°34' E 012°50'4 0.4
2014-Oct-24 21:05N 66°35' E 012°42'5 1.1
2014-Oct-24 16:33N 66°34' E 012°54'2 0.3
2014-Oct-24 10:28N 66°34' E 012°58'2 0.4
2014-Oct-24 05:16N 66°36' E 012°59'5 6.2
2014-Oct-24 04:30N 66°34' E 012°49'1 0.1
2014-Oct-23 18:29N 66°34' E 012°47'5 5.4
2014-Oct-23 17:33N 66°35' E 012°59'0 0.1
2014-Oct-23 14:30N 66°35' E 012°59'5 5.3
2014-Oct-23 13:33N 66°34' E 012°46'2 0.7
2014-Oct-23 10:28N 66°34' E 012°52'3 0.8
2014-Oct-23 06:20N 66°36' E 012°59'5 5.6
2014-Oct-23 05:30N 66°34' E 012°49'4 0.4
2014-Oct-22 20:18N 66°34' E 012°58'2 0.3
2014-Oct-22 14:30N 66°36' E 012°59'5 5.6
2014-Oct-22 13:33N 66°34' E 012°46'1 0.2
2014-Oct-22 10:32N 66°35' E 012°45'6 5.6
2014-Oct-22 09:32N 66°35' E 012°59'1 0.2
2014-Oct-22 06:24N 66°36' E 012°59'5 5.3
2014-Oct-22 05:32N 66°34' E 012°49'3 0.4
2014-Oct-21 20:32N 66°36' E 012°43'  
Track history (hours):
 
Tides and Currents Weather Stations Pressure Air Temp Water Temp Dewpoint Dewpoint Depression Visibility Wind Speed Wind Dir Waves Ship Positions

Fykan

Last reported at 2014-Oct-31 17:18 UTC. Time now 2014-Oct-31 20:54 UTC.
Position N 66°34' E 012°50'.

Length 52 m; draft 3.3 m.

Type: Ship. MMSI: 259681000.

Date/timePositionNaut miles runAvg speedWind from/ knotsBaromVisibWave heightAir tempDewpointWater temp
2014-Oct-31 17:18N 66°34' E 012°50'4 0.8
2014-Oct-31 12:06N 66°36' E 012°41'4 7.8
2014-Oct-31 11:33N 66°34' E 012°50'4 0.8
2014-Oct-31 06:15N 66°36' E 012°59'4 5.9
2014-Oct-31 05:33N 66°34' E 012°50'4 0.4
2014-Oct-30 19:30N 66°36' E 012°42'7 7.0
2014-Oct-30 18:31N 66°35' E 012°59'1 0.2
2014-Oct-30 15:23N 66°36' E 012°59'5 6.1
2014-Oct-30 14:33N 66°34' E 012°47'3 0.8
2014-Oct-30 11:33N 66°34' E 012°54'3 0.7
2014-Oct-30 07:23N 66°36' E 012°59'4 5.1
2014-Oct-30 06:33N 66°34' E 012°50'1 0.2
2014-Oct-29 21:29N 66°34' E 012°54'3 0.5
2014-Oct-29 15:25N 66°36' E 012°59'5 5.9
2014-Oct-29 14:33N 66°34' E 012°48'0 0.0
2014-Oct-29 11:32N 66°34' E 012°48'5 5.1
2014-Oct-29 10:33N 66°36' E 012°59'0 0.0
2014-Oct-29 07:20N 66°36' E 012°59'4 5.2
2014-Oct-29 06:31N 66°34' E 012°50'0 0.0
2014-Oct-28 21:33N 66°34' E 012°50'2 0.6
2014-Oct-28 17:32N 66°33' E 012°56'2 0.4
2014-Oct-28 11:32N 66°34' E 012°50'8 2.0
2014-Oct-28 07:31N 66°34' E 013°11'5 3.9
2014-Oct-28 06:10N 66°36' E 012°59'5 6.5
2014-Oct-28 05:27N 66°34' E 012°49'4 0.3
2014-Oct-27 19:13N 66°36' E 012°42'7 8.8
2014-Oct-27 18:26N 66°37' E 012°59'1 0.3
2014-Oct-27 15:29N 66°36' E 012°59'5 5.4
2014-Oct-27 14:34N 66°34' E 012°48'0 0.2
2014-Oct-27 12:16N 66°34' E 012°48'4 4.4
2014-Oct-27 11:17N 66°35' E 012°59'1 0.3
2014-Oct-27 07:20N 66°36' E 012°59'4 5.4
2014-Oct-27 06:33N 66°34' E 012°50'4 0.5
2014-Oct-26 22:28N 66°36' E 012°43'6 7.1
2014-Oct-26 21:33N 66°34' E 012°58'5 2.6
2014-Oct-26 19:33N 66°35' E 013°11'1 0.8
2014-Oct-26 18:11N 66°34' E 013°10'5 2.5
2014-Oct-26 16:12N 66°36' E 012°59'4 6.1
2014-Oct-26 15:31N 66°34' E 012°50'0 0.0
2014-Oct-25 10:16N 66°34' E 012°50'4 1.0
2014-Oct-25 06:19N 66°36' E 012°59'4 5.4
2014-Oct-25 05:33N 66°34' E 012°50'4 0.4
2014-Oct-24 21:05N 66°35' E 012°42'5 1.1
2014-Oct-24 16:33N 66°34' E 012°54'2 0.3
2014-Oct-24 10:28N 66°34' E 012°58'2 0.4
2014-Oct-24 05:16N 66°36' E 012°59'5 6.2
2014-Oct-24 04:30N 66°34' E 012°49'1 0.1
2014-Oct-23 18:29N 66°34' E 012°47'5 5.4
2014-Oct-23 17:33N 66°35' E 012°59'0 0.1
2014-Oct-23 14:30N 66°35' E 012°59'5 5.3
2014-Oct-23 13:33N 66°34' E 012°46'2 0.7
2014-Oct-23 10:28N 66°34' E 012°52'3 0.8
2014-Oct-23 06:20N 66°36' E 012°59'5 5.6
2014-Oct-23 05:30N 66°34' E 012°49'4 0.4
2014-Oct-22 20:18N 66°34' E 012°58'2 0.3
2014-Oct-22 14:30N 66°36' E 012°59'5 5.6
2014-Oct-22 13:33N 66°34' E 012°46'1 0.2
2014-Oct-22 10:32N 66°35' E 012°45'6 5.6
2014-Oct-22 09:32N 66°35' E 012°59'1 0.2
2014-Oct-22 06:24N 66°36' E 012°59'5 5.3
2014-Oct-22 05:32N 66°34' E 012°49'3 0.4
2014-Oct-21 20:32N 66°36' E 012°43'  

Dump ship's entire track history